Morris, Canada
Current Conditions -  °F | °C
As of 1:35 PM on Friday 31 Oct 2014 (Local Time) from K96D Reporting Station
NA  
Wind Chill: 28°   Ceiling: NA
Heat Index: 36°   Visibility: 10mi
Dew Point: 18°   Wind: 10mph
Humidity: 48%   Direction: 160°SSE
Pressure: 30.47"   Gusts: 17mph
Location:  49.35°N, 97.37°W
Report Text: K96D 311835Z AUTO 16009G15KT 10SM 02/M08 A3047 RMK AO2
Loading
Personal Weather Stations






























Interactive Weather Map
Tropical Storm Tracking
New forecast layout! Learn more

10-Day Weather Forecast

Advertisements
Track Severe Weather on mobile